Terminal Aerodrome Forecast
Issued by NWS

Home | Current Version | Previous Version | Text Only | Print | Product List | Glossary On
Versions: 1 2 3 4 5 6 7 8 9 10 11 12 13 14 15 16 17
907
FTUS42 KJAX 252316 AAD
TAFCRG
TAF AMD
KCRG 252316Z 2523/2618 33025G40KT 1SM +TSRA BR SCT020 BKN030CB
      OVC060
     FM260100 VRB05KT P6SM VCSH SCT020 BKN070 OVC120
     FM260400 24004KT P6SM FEW020 BKN150
     FM261400 27007KT P6SM VCSH SCT025 BKN100 BKN200=

USA.gov is the U.S. government's official web portal to all federal, state and local government web resources and services.